Time;durP1;ratioP1;P1;durP2;ratioP2;P2;SDS_P1;SDS_P2;PMS_P1;PMS_P2;Temp;Humidity;BMP_temperature;BMP_pressure;BME280_temperature;BME280_humidity;BME280_pressure;Samples;Min_cycle;Max_cycle;Signal;HPM_P1;HPM_P2
2021/06/04 00:01:56;;;;;;;3.03;2.20;;;;;;;-140.79;100.00;63287.88;4969756;28;20035;-73
2021/06/04 00:04:21;;;;;;;3.85;2.50;;;;;;;-140.79;100.00;63287.88;4969779;28;20063;-72
2021/06/04 00:06:47;;;;;;;3.60;2.45;;;;;;;-140.79;100.00;63287.88;4952625;28;20491;-73
2021/06/04 00:09:13;;;;;;;3.08;2.40;;;;;;;-140.79;100.00;63287.88;4952450;28;20022;-72
2021/06/04 00:11:41;;;;;;;4.00;2.60;;;;;;;-140.79;100.00;63287.88;4969420;28;20030;-73
2021/06/04 00:14:13;;;;;;;3.47;2.35;;;;;;;-140.79;100.00;63287.88;4969665;28;20101;-73
2021/06/04 00:17:01;;;;;;;5.35;2.50;;;;;;;-140.79;100.00;63287.88;4969317;28;20557;-72
2021/06/04 00:19:28;;;;;;;2.97;2.17;;;;;;;-140.79;100.00;63287.88;4954977;28;20026;-73
2021/06/04 00:22:06;;;;;;;3.65;2.40;;;;;;;-140.79;100.00;63287.88;4951914;28;20502;-73
2021/06/04 00:24:32;;;;;;;3.80;2.45;;;;;;;-140.79;100.00;63287.88;4953593;28;20037;-72
2021/06/04 00:26:58;;;;;;;3.72;2.20;;;;;;;-140.79;100.00;63287.88;4969364;28;20018;-73
2021/06/04 00:29:23;;;;;;;4.05;2.35;;;;;;;-140.79;100.00;63287.88;4969123;28;20026;-71
2021/06/04 00:31:52;;;;;;;4.40;2.35;;;;;;;-140.79;100.00;63287.88;4951459;28;20423;-70
2021/06/04 00:34:17;;;;;;;5.93;2.28;;;;;;;-140.79;100.00;63287.88;4951076;28;20037;-71
2021/06/04 00:36:43;;;;;;;3.17;2.20;;;;;;;-140.79;100.00;63287.88;4968591;28;20490;-72
2021/06/04 00:39:09;;;;;;;3.33;2.40;;;;;;;-140.79;100.00;63287.88;4968740;28;20029;-71
2021/06/04 00:41:40;;;;;;;3.63;2.08;;;;;;;-140.79;100.00;63287.88;4968913;28;20138;-71
2021/06/04 00:44:05;;;;;;;4.18;2.20;;;;;;;-140.79;100.00;63287.88;4951624;28;20089;-71
2021/06/04 00:46:32;;;;;;;4.43;2.50;;;;;;;-140.79;100.00;63287.88;4968776;28;20117;-71
2021/06/04 00:48:58;;;;;;;3.00;2.20;;;;;;;-140.79;100.00;63287.88;4968839;28;20564;-71
2021/06/04 00:51:32;;;;;;;3.90;2.30;;;;;;;-140.79;100.00;63287.88;4950795;28;20030;-71
2021/06/04 00:53:58;;;;;;;4.38;2.53;;;;;;;-140.79;100.00;63287.88;4951033;28;20027;-71
2021/06/04 00:56:24;;;;;;;4.10;2.58;;;;;;;-140.79;100.00;63287.88;4968778;28;20090;-72
2021/06/04 00:58:50;;;;;;;4.32;2.50;;;;;;;-140.79;100.00;63287.88;4935450;28;20027;-71
2021/06/04 01:01:17;;;;;;;3.58;2.50;;;;;;;-140.79;100.00;63287.88;4968360;28;20097;-72
2021/06/04 01:03:46;;;;;;;3.95;2.28;;;;;;;-140.79;100.00;63287.88;4968766;28;20144;-72
2021/06/04 01:06:36;;;;;;;3.65;2.90;;;;;;;-140.79;100.00;63287.88;4968635;28;20022;-72
2021/06/04 01:09:11;;;;;;;4.13;2.58;;;;;;;-140.79;100.00;63287.88;4951275;28;20089;-72
2021/06/04 01:11:55;;;;;;;2.95;2.33;;;;;;;-140.79;100.00;63287.88;4968641;28;20538;-71
2021/06/04 01:14:37;;;;;;;5.30;2.70;;;;;;;-140.79;100.00;63287.88;4968494;28;20045;-72
2021/06/04 01:17:06;;;;;;;5.07;2.85;;;;;;;-140.79;100.00;63287.88;4936191;28;20121;-72
2021/06/04 01:19:51;;;;;;;3.63;2.67;;;;;;;-140.79;100.00;63287.88;4951398;28;20031;-72
2021/06/04 01:22:53;;;;;;;3.97;2.50;;;;;;;-140.79;100.00;63287.88;4935143;28;20038;-72
2021/06/04 01:25:36;;;;;;;3.22;2.20;;;;;;;-140.79;100.00;63287.88;4968192;28;20027;-72
2021/06/04 01:28:07;;;;;;;6.18;2.60;;;;;;;-140.79;100.00;63287.88;4951151;28;20050;-72
2021/06/04 01:30:38;;;;;;;4.63;2.72;;;;;;;-140.79;100.00;63287.88;4951332;28;20069;-72
2021/06/04 01:33:07;;;;;;;4.25;2.45;;;;;;;-140.79;100.00;63287.88;4951198;28;20426;-72
2021/06/04 01:35:50;;;;;;;4.35;2.50;;;;;;;-140.79;100.00;63287.88;4951459;28;20423;-72
2021/06/04 01:38:17;;;;;;;4.35;2.88;;;;;;;-140.79;100.00;63287.88;4951462;28;20030;-72
2021/06/04 01:40:46;;;;;;;4.25;2.72;;;;;;;-140.79;100.00;63287.88;4935200;28;20035;-72
2021/06/04 01:43:30;;;;;;;3.75;2.40;;;;;;;-140.79;100.00;63287.88;4951091;28;20035;-71
2021/06/04 01:46:01;;;;;;;3.50;2.30;;;;;;;-140.79;100.00;63287.88;4976174;28;20430;-72
2021/06/04 01:48:28;;;;;;;4.72;2.97;;;;;;;-140.79;100.00;63287.88;4966592;28;20058;-72
2021/06/04 01:51:07;;;;;;;3.50;2.50;;;;;;;-140.79;100.00;63287.88;4951283;28;20055;-72
2021/06/04 01:53:36;;;;;;;4.18;2.28;;;;;;;-140.79;100.00;63287.88;4968255;28;20081;-72
2021/06/04 01:56:09;;;;;;;5.75;3.03;;;;;;;-140.79;100.00;63287.88;4967047;28;20422;-71
2021/06/04 01:58:59;;;;;;;5.20;2.65;;;;;;;-140.79;100.00;63287.88;4966412;28;20089;-72
2021/06/04 02:01:33;;;;;;;3.38;2.42;;;;;;;-140.79;100.00;63287.88;4976075;28;20039;-72
2021/06/04 02:03:59;;;;;;;3.90;2.63;;;;;;;-140.79;100.00;63287.88;4967993;28;20054;-72
2021/06/04 02:06:26;;;;;;;4.75;2.72;;;;;;;-140.79;100.00;63287.88;4971385;28;20064;-72
2021/06/04 02:08:53;;;;;;;3.85;2.63;;;;;;;-140.79;100.00;63287.88;4971887;28;20027;-72
2021/06/04 02:11:22;;;;;;;5.13;3.00;;;;;;;-140.79;100.00;63287.88;4954209;28;20041;-72
2021/06/04 02:13:48;;;;;;;4.43;2.80;;;;;;;-140.79;100.00;63287.88;4954217;28;20034;-72
2021/06/04 02:16:21;;;;;;;4.55;2.90;;;;;;;-140.79;100.00;63287.88;4938293;28;20035;-72
2021/06/04 02:19:00;;;;;;;3.92;2.78;;;;;;;-140.79;100.00;63287.88;4972298;28;20035;-71
2021/06/04 02:21:28;;;;;;;3.40;2.70;;;;;;;-140.79;100.00;63287.88;4956046;28;20027;-71
2021/06/04 02:24:31;;;;;;;4.53;2.72;;;;;;;-140.79;100.00;63287.88;4988495;28;20084;-71
2021/06/04 02:27:11;;;;;;;3.80;2.58;;;;;;;-140.79;100.00;63287.88;4977722;28;20054;-71
2021/06/04 02:29:38;;;;;;;;;;;;;;;-140.79;100.00;63287.88;4937209;28;20029;-73
2021/06/04 02:32:22;;;;;;;4.93;2.80;;;;;;;-140.79;100.00;63287.88;4944199;28;19956;-73
2021/06/04 02:35:05;;;;;;;4.00;2.40;;;;;;;-140.79;100.00;63287.88;4955655;28;20077;-74
2021/06/04 02:37:33;;;;;;;4.28;2.53;;;;;;;-140.79;100.00;63287.88;4940875;28;20058;-72
2021/06/04 02:40:07;;;;;;;4.00;2.70;;;;;;;-140.79;100.00;63287.88;4953285;28;20027;-73
2021/06/04 02:42:36;;;;;;;4.38;2.50;;;;;;;-140.79;100.00;63287.88;4953339;28;20030;-72
2021/06/04 02:45:25;;;;;;;3.90;2.28;;;;;;;-140.79;100.00;63287.88;4950580;28;20030;-72
2021/06/04 02:47:52;;;;;;;4.43;2.60;;;;;;;-140.79;100.00;63287.88;4951103;28;20065;-74
2021/06/04 02:50:26;;;;;;;3.83;2.40;;;;;;;-140.79;100.00;63287.88;4964426;28;20053;-73
2021/06/04 02:52:51;;;;;;;3.72;2.55;;;;;;;-140.79;100.00;63287.88;4949089;28;20465;-72
2021/06/04 02:55:29;;;;;;;4.25;2.70;;;;;;;-140.79;100.00;63287.88;4952743;28;20038;-72
2021/06/04 02:57:54;;;;;;;3.00;2.20;;;;;;;-140.79;100.00;63287.88;4933825;28;20502;-72
2021/06/04 03:00:37;;;;;;;4.30;2.80;;;;;;;-140.79;100.00;63287.88;4949731;28;20086;-73
2021/06/04 03:03:02;;;;;;;4.25;2.58;;;;;;;-140.79;100.00;63287.88;4966580;28;20046;-73
2021/06/04 03:05:30;;;;;;;3.55;2.58;;;;;;;-140.79;100.00;63287.88;4962149;28;20039;-72
2021/06/04 03:07:56;;;;;;;3.58;2.67;;;;;;;-140.79;100.00;63287.88;4965643;28;20066;-73
2021/06/04 03:10:34;;;;;;;3.30;2.55;;;;;;;-140.79;100.00;63287.88;4926933;28;20031;-72
2021/06/04 03:12:59;;;;;;;4.28;2.40;;;;;;;-140.79;100.00;63287.88;4949029;28;20102;-73
2021/06/04 03:15:33;;;;;;;3.67;2.20;;;;;;;-140.79;100.00;63287.88;4947317;28;20022;-73
2021/06/04 03:17:59;;;;;;;4.60;2.72;;;;;;;-140.79;100.00;63287.88;4964023;28;20047;-74
2021/06/04 03:20:28;;;;;;;3.67;2.40;;;;;;;-140.79;100.00;63287.88;4941508;28;20039;-73
2021/06/04 03:22:53;;;;;;;3.73;2.20;;;;;;;-140.79;100.00;63287.88;4966172;28;20041;-73
2021/06/04 03:25:23;;;;;;;4.38;2.67;;;;;;;-140.79;100.00;63287.88;4969170;28;20270;-73
2021/06/04 03:27:48;;;;;;;3.42;2.30;;;;;;;-140.79;100.00;63287.88;4949089;28;20031;-72
2021/06/04 03:30:17;;;;;;;3.40;2.60;;;;;;;-140.79;100.00;63287.88;4958224;28;20490;-72
2021/06/04 03:32:43;;;;;;;4.30;2.38;;;;;;;-140.79;100.00;63287.88;4963306;28;20034;-72
2021/06/04 03:35:09;;;;;;;3.55;2.40;;;;;;;-140.79;100.00;63287.88;4933934;29;20027;-73
2021/06/04 03:37:36;;;;;;;2.60;2.03;;;;;;;-140.79;100.00;63287.88;4960874;28;20065;-73
2021/06/04 03:40:03;;;;;;;3.90;2.10;;;;;;;-140.79;100.00;63287.88;4956789;28;20030;-72
2021/06/04 03:42:29;;;;;;;3.78;2.42;;;;;;;-140.79;100.00;63287.88;4966777;28;20031;-70
2021/06/04 03:44:55;;;;;;;3.70;2.65;;;;;;;-140.79;100.00;63287.88;4975791;28;20082;-70
2021/06/04 03:47:21;;;;;;;3.35;2.28;;;;;;;-140.79;100.00;63287.88;4954434;28;20042;-72
2021/06/04 03:49:46;;;;;;;2.88;2.20;;;;;;;-140.79;100.00;63287.88;4952101;28;20054;-72
2021/06/04 03:52:13;;;;;;;3.53;2.25;;;;;;;-140.79;100.00;63287.88;4950666;28;20554;-73
2021/06/04 03:54:41;;;;;;;3.80;2.03;;;;;;;-140.79;100.00;63287.88;4953981;28;20031;-73
2021/06/04 03:57:22;;;;;;;3.58;2.50;;;;;;;-140.79;100.00;63287.88;4955962;28;20116;-73
2021/06/04 03:59:47;;;;;;;3.15;2.28;;;;;;;-140.79;100.00;63287.88;4939459;28;20018;-72
2021/06/04 04:02:15;;;;;;;4.38;2.38;;;;;;;-140.79;100.00;63287.88;4953322;28;20022;-73
2021/06/04 04:04:41;;;;;;;3.45;2.13;;;;;;;-140.79;100.00;63287.88;4940875;28;20138;-72
2021/06/04 04:07:06;;;;;;;3.53;2.30;;;;;;;-140.79;100.00;63287.88;4940929;28;20479;-73
2021/06/04 04:09:32;;;;;;;3.50;2.30;;;;;;;-140.79;100.00;63287.88;4937855;28;20496;-73
2021/06/04 04:11:57;;;;;;;3.42;2.42;;;;;;;-140.79;100.00;63287.88;4931217;28;20019;-72
2021/06/04 04:14:23;;;;;;;3.13;2.35;;;;;;;-140.79;100.00;63287.88;4895712;28;20027;-71
2021/06/04 04:16:49;;;;;;;3.05;2.22;;;;;;;-140.79;100.00;63287.88;4906107;28;20051;-72
2021/06/04 04:19:14;;;;;;;4.32;2.22;;;;;;;-140.79;100.00;63287.88;4939842;28;20392;-73
2021/06/04 04:21:40;;;;;;;4.22;2.10;;;;;;;-140.79;100.00;63287.88;4950475;28;20455;-72
2021/06/04 04:24:10;;;;;;;2.97;1.98;;;;;;;-140.79;100.00;63287.88;4939504;28;20030;-72
2021/06/04 04:26:36;;;;;;;3.45;1.90;;;;;;;-140.79;100.00;63287.88;4935432;28;20031;-73
2021/06/04 04:29:01;;;;;;;2.88;2.40;;;;;;;-140.79;100.00;63287.88;4933267;28;20468;-73
2021/06/04 04:31:29;;;;;;;3.20;2.30;;;;;;;-140.79;100.00;63287.88;4944160;28;20085;-72
2021/06/04 04:33:55;;;;;;;3.03;2.28;;;;;;;-140.79;100.00;63287.88;4937865;28;20507;-71
2021/06/04 04:36:23;;;;;;;3.22;2.22;;;;;;;-140.79;100.00;63287.88;4955474;28;20054;-72
2021/06/04 04:38:49;;;;;;;3.65;2.25;;;;;;;-140.79;100.00;63287.88;4950031;28;20710;-70
2021/06/04 04:41:14;;;;;;;3.47;2.40;;;;;;;-140.79;100.00;63287.88;4946143;29;20098;-72
2021/06/04 04:43:41;;;;;;;2.95;2.05;;;;;;;-140.79;100.00;63287.88;4941583;28;20024;-73
2021/06/04 04:46:14;;;;;;;3.03;2.22;;;;;;;-140.79;100.00;63287.88;4944474;28;20034;-72
2021/06/04 04:48:40;;;;;;;2.97;2.13;;;;;;;-140.79;100.00;63287.88;4927148;29;20059;-73
2021/06/04 04:51:06;;;;;;;4.13;1.95;;;;;;;-140.79;100.00;63287.88;4949261;28;20495;-71
2021/06/04 04:53:31;;;;;;;3.03;2.15;;;;;;;-140.79;100.00;63287.88;4946348;28;20578;-73
2021/06/04 04:55:57;;;;;;;2.92;2.22;;;;;;;-140.79;100.00;63287.88;4949147;28;20031;-73
2021/06/04 04:58:22;;;;;;;2.65;1.95;;;;;;;-140.79;100.00;63287.88;4945997;28;20027;-73
2021/06/04 05:00:48;;;;;;;2.70;1.92;;;;;;;-140.79;100.00;63287.88;4948703;29;20023;-71
2021/06/04 05:03:13;;;;;;;4.13;2.00;;;;;;;-140.79;100.00;63287.88;4957754;28;20038;-69
2021/06/04 05:05:39;;;;;;;2.40;1.90;;;;;;;-140.79;100.00;63287.88;4968953;28;20033;-71
2021/06/04 05:08:05;;;;;;;2.97;2.13;;;;;;;-140.79;100.00;63287.88;4946536;28;20031;-71
2021/06/04 05:10:31;;;;;;;3.03;2.08;;;;;;;-140.79;100.00;63287.88;4967807;28;20885;-70
2021/06/04 05:12:57;;;;;;;2.88;2.10;;;;;;;-140.79;100.00;63287.88;4962534;28;20034;-70
2021/06/04 05:15:26;;;;;;;3.05;2.00;;;;;;;-140.79;100.00;63287.88;4964813;28;20022;-71
2021/06/04 05:17:52;;;;;;;3.70;2.33;;;;;;;-140.79;100.00;63287.88;4933294;28;20484;-70
2021/06/04 05:20:17;;;;;;;3.40;2.28;;;;;;;-140.79;100.00;63287.88;4960431;28;20049;-70
2021/06/04 05:22:43;;;;;;;2.75;1.85;;;;;;;-140.79;100.00;63287.88;4966223;28;20039;-69
2021/06/04 05:25:10;;;;;;;3.13;2.15;;;;;;;-140.79;100.00;63287.88;4963993;28;20042;-75
2021/06/04 05:27:36;;;;;;;3.20;2.08;;;;;;;-140.79;100.00;63287.88;4967559;28;20033;-73
2021/06/04 05:30:08;;;;;;;3.33;2.00;;;;;;;-140.79;100.00;63287.88;4977476;28;20401;-73
2021/06/04 05:32:33;;;;;;;2.72;1.98;;;;;;;-140.79;100.00;63287.88;4965886;28;20038;-72
2021/06/04 05:34:59;;;;;;;2.67;1.85;;;;;;;-140.79;100.00;63287.88;4959626;28;20054;-73
2021/06/04 05:37:24;;;;;;;3.45;2.00;;;;;;;-140.79;100.00;63287.88;4932788;28;20024;-83
2021/06/04 05:39:49;;;;;;;3.65;1.95;;;;;;;-140.79;100.00;63287.88;4944412;28;20042;-72
2021/06/04 05:42:15;;;;;;;3.67;2.00;;;;;;;-140.79;100.00;63287.88;4953488;28;20778;-66
2021/06/04 05:44:42;;;;;;;2.40;1.73;;;;;;;-140.79;100.00;63287.88;4964223;28;20043;-67
2021/06/04 05:47:09;;;;;;;3.67;2.33;;;;;;;-140.79;100.00;63287.88;4935245;28;20638;-70
2021/06/04 05:49:36;;;;;;;2.78;2.00;;;;;;;-140.79;100.00;63287.88;4944149;28;20027;-69
2021/06/04 05:52:08;;;;;;;3.17;2.10;;;;;;;-140.79;100.00;63287.88;4958676;28;20514;-71
2021/06/04 05:54:34;;;;;;;2.53;2.00;;;;;;;-140.79;100.00;63287.88;4958573;28;20138;-68
2021/06/04 05:57:00;;;;;;;3.97;2.33;;;;;;;-140.79;100.00;63287.88;4942585;28;20027;-69
2021/06/04 05:59:25;;;;;;;3.80;2.17;;;;;;;-140.79;100.00;63287.88;4957237;28;20077;-70
2021/06/04 06:01:51;;;;;;;2.90;2.08;;;;;;;-140.79;100.00;63287.88;4953426;28;20035;-70
2021/06/04 06:04:16;;;;;;;2.45;2.00;;;;;;;-140.79;100.00;63287.88;4956793;28;20040;-69
2021/06/04 06:06:42;;;;;;;2.97;1.80;;;;;;;-140.79;100.00;63287.88;4970432;28;20057;-69
2021/06/04 06:09:07;;;;;;;4.35;2.40;;;;;;;-140.79;100.00;63287.88;4968311;28;20030;-73
2021/06/04 06:11:33;;;;;;;2.70;1.92;;;;;;;-140.79;100.00;63287.88;4949043;28;20039;-72
2021/06/04 06:14:00;;;;;;;2.70;1.75;;;;;;;-140.79;100.00;63287.88;4954483;28;20137;-73
2021/06/04 06:16:26;;;;;;;2.50;1.80;;;;;;;-140.79;100.00;63287.88;4960739;28;20066;-75
2021/06/04 06:18:52;;;;;;;3.17;2.17;;;;;;;-140.79;100.00;63287.88;4962331;28;20031;-72
2021/06/04 06:21:17;;;;;;;3.97;2.00;;;;;;;-140.79;100.00;63287.88;4945772;28;20199;-73
2021/06/04 06:23:43;;;;;;;3.15;2.13;;;;;;;-140.79;100.00;63287.88;4958737;28;20027;-74
2021/06/04 06:26:15;;;;;;;2.55;1.90;;;;;;;-140.79;100.00;63287.88;4956776;28;20027;-76
2021/06/04 06:28:41;;;;;;;4.22;2.22;;;;;;;-140.79;100.00;63287.88;4943068;28;20044;-76
2021/06/04 06:31:11;;;;;;;4.72;2.03;;;;;;;-140.79;100.00;63287.88;4958079;28;20031;-77
2021/06/04 06:33:37;;;;;;;2.72;2.08;;;;;;;-140.79;100.00;63287.88;4948436;28;20070;-74
2021/06/04 06:36:06;;;;;;;3.13;2.20;;;;;;;-140.79;100.00;63287.88;4983186;28;20454;-74
2021/06/04 06:38:31;;;;;;;2.90;2.00;;;;;;;-140.79;100.00;63287.88;4959612;28;20027;-72
2021/06/04 06:41:00;;;;;;;3.17;2.10;;;;;;;-140.79;100.00;63287.88;4940264;28;20525;-73
2021/06/04 06:43:28;;;;;;;3.10;2.00;;;;;;;-140.79;100.00;63287.88;4939047;28;20510;-73
2021/06/04 06:45:53;;;;;;;3.88;2.15;;;;;;;-140.79;100.00;63287.88;4952283;28;20756;-74
2021/06/04 06:48:19;;;;;;;3.47;2.17;;;;;;;-140.79;100.00;63287.88;4967301;28;20058;-76
2021/06/04 06:50:44;;;;;;;4.55;2.22;;;;;;;-140.79;100.00;63287.88;4965966;28;20034;-73
2021/06/04 06:53:12;;;;;;;3.25;2.00;;;;;;;-140.79;100.00;63287.88;4966333;28;20037;-74
2021/06/04 06:55:38;;;;;;;3.30;1.85;;;;;;;-140.79;100.00;63287.88;4961444;28;20026;-74
2021/06/04 06:58:04;;;;;;;4.78;1.98;;;;;;;-140.79;100.00;63287.88;4948383;28;20659;-75
2021/06/04 07:00:33;;;;;;;3.75;2.08;;;;;;;-140.79;100.00;63287.88;4968674;28;20035;-75
2021/06/04 07:02:59;;;;;;;3.75;2.20;;;;;;;-140.79;100.00;63287.88;4968116;28;20027;-74
2021/06/04 07:05:25;;;;;;;3.00;2.10;;;;;;;-140.79;100.00;63287.88;4952272;28;20049;-74
2021/06/04 07:07:51;;;;;;;2.35;1.75;;;;;;;-140.79;100.00;63287.88;4966184;28;20089;-74
2021/06/04 07:10:18;;;;;;;2.72;1.95;;;;;;;-140.79;100.00;63287.88;4967811;28;20038;-73
2021/06/04 07:12:44;;;;;;;2.85;1.90;;;;;;;-140.79;100.00;63287.88;4950698;28;20038;-73
2021/06/04 07:15:10;;;;;;;3.08;2.05;;;;;;;-140.79;100.00;63287.88;4966462;28;20505;-73
2021/06/04 07:17:38;;;;;;;3.28;1.77;;;;;;;-140.79;100.00;63287.88;4966923;28;20028;-74
2021/06/04 07:20:04;;;;;;;2.60;2.20;;;;;;;-140.79;100.00;63287.88;4969135;28;20034;-75
2021/06/04 07:22:31;;;;;;;2.33;2.05;;;;;;;-140.79;100.00;63287.88;4967845;28;20532;-74
2021/06/04 07:24:56;;;;;;;2.53;2.03;;;;;;;-140.79;100.00;63287.88;4965782;28;20437;-74
2021/06/04 07:27:22;;;;;;;3.70;2.22;;;;;;;-140.79;100.00;63287.88;4969205;28;20027;-75
2021/06/04 07:29:47;;;;;;;2.78;2.22;;;;;;;-140.79;100.00;63287.88;4962792;28;20581;-74
2021/06/04 07:32:13;;;;;;;3.08;1.90;;;;;;;-140.79;100.00;63287.88;4969687;28;20495;-74
2021/06/04 07:34:38;;;;;;;3.58;2.00;;;;;;;-140.79;100.00;63287.88;4964160;28;20026;-75
2021/06/04 07:37:04;;;;;;;2.67;1.92;;;;;;;-140.79;100.00;63287.88;4970159;28;20031;-75
2021/06/04 07:39:32;;;;;;;4.70;1.92;;;;;;;-140.79;100.00;63287.88;4953521;28;20031;-74
2021/06/04 07:41:59;;;;;;;2.13;1.65;;;;;;;-140.79;100.00;63287.88;4965049;28;20138;-74
2021/06/04 07:44:24;;;;;;;3.78;2.17;;;;;;;-140.79;100.00;63287.88;4937687;28;20582;-74
2021/06/04 07:46:50;;;;;;;3.75;2.03;;;;;;;-140.79;100.00;63287.88;4968047;28;20110;-75
2021/06/04 07:49:16;;;;;;;2.90;1.83;;;;;;;-140.79;100.00;63287.88;4951371;28;20058;-75
2021/06/04 07:51:45;;;;;;;2.55;1.77;;;;;;;-140.79;100.00;63287.88;4934757;28;20035;-74
2021/06/04 07:54:11;;;;;;;2.75;2.10;;;;;;;-140.79;100.00;63287.88;4958851;28;20086;-74
2021/06/04 07:56:38;;;;;;;3.40;1.98;;;;;;;-140.79;100.00;63287.88;4963386;28;20027;-74
2021/06/04 07:59:03;;;;;;;3.97;2.10;;;;;;;-140.79;100.00;63287.88;4950825;29;20102;-74
2021/06/04 08:01:29;;;;;;;2.92;1.80;;;;;;;-140.79;100.00;63287.88;4933276;28;20038;-75
2021/06/04 08:03:58;;;;;;;2.60;1.85;;;;;;;-140.79;100.00;63287.88;4960220;28;20134;-75
2021/06/04 08:06:23;;;;;;;3.00;2.20;;;;;;;-140.79;100.00;63287.88;4949446;28;20027;-74
2021/06/04 08:08:53;;;;;;;3.55;2.05;;;;;;;-140.79;100.00;63287.88;4969578;28;20034;-74
2021/06/04 08:11:24;;;;;;;2.50;1.90;;;;;;;-140.79;100.00;63287.88;4964890;28;20035;-75
2021/06/04 08:13:50;;;;;;;3.45;1.92;;;;;;;-140.79;100.00;63287.88;4958464;28;20121;-75
2021/06/04 08:16:15;;;;;;;2.15;1.77;;;;;;;-140.79;100.00;63287.88;4968654;28;20210;-74
2021/06/04 08:18:41;;;;;;;2.50;2.00;;;;;;;-140.79;100.00;63287.88;4968020;28;20046;-74
2021/06/04 08:21:18;;;;;;;3.17;2.20;;;;;;;-140.79;100.00;63287.88;4969563;28;20073;-75
2021/06/04 08:23:45;;;;;;;2.92;2.30;;;;;;;-140.79;100.00;63287.88;4953252;28;20105;-75
2021/06/04 08:26:12;;;;;;;3.03;1.95;;;;;;;-140.79;100.00;63287.88;4952829;28;20066;-74
2021/06/04 08:28:38;;;;;;;2.85;2.05;;;;;;;-140.79;100.00;63287.88;4969318;28;20014;-74
2021/06/04 08:31:04;;;;;;;4.07;2.00;;;;;;;-140.79;100.00;63287.88;4969867;28;20351;-75
2021/06/04 08:33:33;;;;;;;5.05;2.25;;;;;;;-140.79;100.00;63287.88;4952621;28;20035;-76
2021/06/04 08:35:58;;;;;;;4.40;2.15;;;;;;;-140.79;100.00;63287.88;4952590;28;20027;-76
2021/06/04 08:38:25;;;;;;;3.90;2.33;;;;;;;-140.79;100.00;63287.88;4949843;28;20027;-76
2021/06/04 08:40:50;;;;;;;3.00;1.95;;;;;;;-140.79;100.00;63287.88;4942404;28;20038;-75
2021/06/04 08:43:22;;;;;;;4.13;2.20;;;;;;;-140.79;100.00;63287.88;4951657;28;20426;-76
2021/06/04 08:45:53;;;;;;;4.38;2.70;;;;;;;-140.79;100.00;63287.88;4961906;28;20173;-76
2021/06/04 08:48:32;;;;;;;3.80;2.30;;;;;;;-140.79;100.00;63287.88;4936980;28;20046;-76
2021/06/04 08:51:15;;;;;;;5.75;2.78;;;;;;;-140.79;100.00;63287.88;4969421;28;20092;-75
2021/06/04 08:53:56;;;;;;;3.55;2.40;;;;;;;-140.79;100.00;63287.88;4952693;28;20085;-75
2021/06/04 08:56:50;;;;;;;3.95;2.30;;;;;;;-140.79;100.00;63287.88;4970351;28;20113;-76
2021/06/04 08:59:17;;;;;;;5.05;2.40;;;;;;;-140.79;100.00;63287.88;4961929;28;20854;-75
2021/06/04 09:01:59;;;;;;;3.55;2.42;;;;;;;-140.79;100.00;63287.88;4946980;28;20045;-77
2021/06/04 09:04:26;;;;;;;3.50;2.20;;;;;;;-140.79;100.00;63287.88;4977872;28;20063;-76
2021/06/04 09:07:05;;;;;;;5.07;2.30;;;;;;;-140.79;100.00;63287.88;4941403;29;20031;-75
2021/06/04 09:09:39;;;;;;;3.53;2.33;;;;;;;-140.79;100.00;63287.88;4946629;28;20049;-72
2021/06/04 09:12:44;;;;;;;3.03;2.20;;;;;;;-140.79;100.00;63287.88;4969101;28;20302;-72
2021/06/04 09:15:10;;;;;;;3.50;2.10;;;;;;;-140.79;100.00;63287.88;4917765;28;20118;-68
2021/06/04 09:17:45;;;;;;;6.65;2.85;;;;;;;-140.79;100.00;63287.88;4968334;28;20027;-72
2021/06/04 09:20:15;;;;;;;3.72;2.15;;;;;;;-140.79;100.00;63287.88;4950218;28;20038;-70
2021/06/04 09:22:44;;;;;;;;;;;;;;;-140.79;100.00;63287.88;4965993;28;20065;-71
2021/06/04 09:25:19;;;;;;;4.32;2.13;;;;;;;-140.79;100.00;63287.88;4947396;28;19918;-71
2021/06/04 09:27:48;;;;;;;4.30;2.30;;;;;;;-140.79;100.00;63287.88;4966444;28;20045;-71
2021/06/04 09:30:43;;;;;;;3.70;2.17;;;;;;;-140.79;100.00;63287.88;4948937;28;20469;-71
2021/06/04 09:33:17;;;;;;;3.55;2.30;;;;;;;-140.79;100.00;63287.88;4963613;28;20047;-72
2021/06/04 09:36:05;;;;;;;3.63;2.28;;;;;;;-140.79;100.00;63287.88;4968988;28;20035;-71
2021/06/04 09:38:50;;;;;;;3.15;1.95;;;;;;;-140.79;100.00;63287.88;4961108;28;20089;-71
2021/06/04 09:41:39;;;;;;;3.15;2.40;;;;;;;-140.79;100.00;63287.88;4966666;28;20121;-70
2021/06/04 09:44:17;;;;;;;3.28;2.20;;;;;;;-140.79;100.00;63287.88;4953110;28;20039;-70
2021/06/04 09:46:48;;;;;;;3.75;2.30;;;;;;;-140.79;100.00;63287.88;4963740;28;20125;-71
2021/06/04 09:49:26;;;;;;;4.10;2.20;;;;;;;-140.79;100.00;63287.88;4953909;28;20031;-71
2021/06/04 09:51:57;;;;;;;3.92;2.40;;;;;;;-140.79;100.00;63287.88;4947413;28;20031;-70
2021/06/04 09:54:29;;;;;;;3.80;2.33;;;;;;;-140.79;100.00;63287.88;4931584;28;20517;-70
2021/06/04 09:57:09;;;;;;;3.97;2.22;;;;;;;-140.79;100.00;63287.88;4947055;28;20422;-71
2021/06/04 09:59:35;;;;;;;4.78;2.25;;;;;;;-140.79;100.00;63287.88;4942460;28;20039;-71
2021/06/04 10:02:01;;;;;;;4.22;2.20;;;;;;;-140.79;100.00;63287.88;4963486;28;20391;-71
2021/06/04 10:04:32;;;;;;;2.72;1.80;;;;;;;-140.79;100.00;63287.88;4941373;28;20486;-70
2021/06/04 10:07:14;;;;;;;3.28;1.90;;;;;;;-140.79;100.00;63287.88;4945744;28;20096;-71
2021/06/04 10:09:40;;;;;;;2.65;1.85;;;;;;;-140.79;100.00;63287.88;4941690;28;20050;-70
2021/06/04 10:12:29;;;;;;;2.35;1.77;;;;;;;-140.79;100.00;63287.88;4963375;28;20041;-71
2021/06/04 10:14:57;;;;;;;2.23;1.80;;;;;;;-140.79;100.00;63287.88;4930036;29;20046;-71
2021/06/04 10:20:31;;;;;;;4.28;1.65;;;;;;;-140.79;100.00;63287.88;4943775;28;20410;-71
2021/06/04 10:23:09;;;;;;;4.95;2.13;;;;;;;-140.79;100.00;63287.88;4945124;28;20043;-72
2021/06/04 10:25:55;;;;;;;4.50;2.15;;;;;;;-140.79;100.00;63287.88;4935617;28;20023;-71
2021/06/04 10:28:28;;;;;;;4.22;2.33;;;;;;;-140.79;100.00;63287.88;4955777;28;20086;-68
2021/06/04 10:30:53;;;;;;;4.80;2.10;;;;;;;-140.79;100.00;63287.88;4969239;28;20043;-69
2021/06/04 10:33:34;;;;;;;6.90;2.05;;;;;;;-140.79;100.00;63287.88;4954639;28;20046;-70
2021/06/04 10:36:00;;;;;;;2.97;2.15;;;;;;;-140.79;100.00;63287.88;4934008;28;20086;-66
2021/06/04 10:38:33;;;;;;;3.75;2.15;;;;;;;-140.79;100.00;63287.88;4941806;28;20062;-70
2021/06/04 10:41:06;;;;;;;4.00;2.10;;;;;;;-140.79;100.00;63287.88;4945589;28;20118;-69
2021/06/04 10:43:56;;;;;;;4.47;2.38;;;;;;;-140.79;100.00;63287.88;4947705;28;20520;-69
2021/06/04 10:47:03;;;;;;;3.28;2.00;;;;;;;-140.79;100.00;63287.88;4956231;28;20027;-68
2021/06/04 10:49:47;;;;;;;5.00;2.22;;;;;;;-140.79;100.00;63287.88;4938911;28;20816;-69
2021/06/04 10:52:31;;;;;;;7.25;2.20;;;;;;;-140.79;100.00;63287.88;4962632;28;20027;-70
2021/06/04 10:55:40;;;;;;;5.10;2.00;;;;;;;-140.79;100.00;63287.88;4963141;28;20040;-70
2021/06/04 10:58:11;;;;;;;5.53;2.20;;;;;;;-140.79;100.00;63287.88;4968778;28;20077;-71
2021/06/04 11:00:47;;;;;;;3.25;2.13;;;;;;;-140.79;100.00;63287.88;4950379;28;20037;-70
2021/06/04 11:03:19;;;;;;;3.35;1.70;;;;;;;-140.79;100.00;63287.88;4965817;28;20047;-70
2021/06/04 11:05:50;;;;;;;4.03;2.33;;;;;;;-140.79;100.00;63287.88;4968873;28;20038;-70
2021/06/04 11:08:41;;;;;;;3.00;2.08;;;;;;;-140.79;100.00;63287.88;4953856;28;20165;-70
2021/06/04 11:11:29;;;;;;;5.32;1.90;;;;;;;-140.79;100.00;63287.88;4943408;28;20035;-70
2021/06/04 11:14:25;;;;;;;7.20;2.20;;;;;;;-140.79;100.00;63287.88;4960923;28;20503;-70
2021/06/04 11:17:09;;;;;;;3.50;1.90;;;;;;;-140.79;100.00;63287.88;4945018;28;20030;-71
2021/06/04 11:19:36;;;;;;;4.13;1.80;;;;;;;-140.79;100.00;63287.88;4964386;28;20034;-71
2021/06/04 11:22:20;;;;;;;3.70;2.08;;;;;;;-140.79;100.00;63287.88;4982385;28;20031;-71
2021/06/04 11:25:01;;;;;;;4.47;1.92;;;;;;;-140.79;100.00;63287.88;4942667;28;20037;-70
2021/06/04 11:27:38;;;;;;;2.95;1.88;;;;;;;-140.79;100.00;63287.88;4945686;28;20501;-70
2021/06/04 11:30:07;;;;;;;5.25;2.08;;;;;;;-140.79;100.00;63287.88;4942259;29;20030;-70